This is the latest recevied weather packets stored in our database for station/object KC4JY. If no packets are shown the sender has not sent any weather packets the latest 10 day(s).
| Time | Temp. | Humidity | Pressure | Rain* | Wind** | Luminosity | Snow |
|---|---|---|---|---|---|---|---|
| 1777847475 | 18.89° C | 33% | 1016.1 hPa | 0 mm | - | - | - |
| 1777846516 | 18.89° C | 33% | 1016 hPa | 0 mm | - | - | - |
| 1777845661 | 18.89° C | 34% | 1016.1 hPa | 0 mm | - | - | - |
| 1777844766 | 18.89° C | 32% | 1016 hPa | 0 mm | - | - | - |
| 1777843843 | 19.44° C | 35% | 1016.1 hPa | 0 mm | - | - | - |
| 1777842940 | 18.89° C | 32% | 1016.1 hPa | 0 mm | - | - | - |
| 1777842019 | 18.33° C | 33% | 1016.2 hPa | 0 mm | - | - | - |
| 1777841117 | 18.33° C | 32% | 1016.3 hPa | 0 mm | - | - | - |
| 1777840206 | 18.33° C | 32% | 1016.3 hPa | 0 mm | - | - | - |
| 1777839305 | 18.33° C | 35% | 1016.5 hPa | 0 mm | - | - | - |
| 1777838404 | 18.33° C | 35% | 1016.5 hPa | 0 mm | - | - | - |
| 1777837503 | 18.33° C | 39% | 1016.8 hPa | 0 mm | - | - | - |
| 1777836603 | 18.33° C | 36% | 1016.8 hPa | 0 mm | - | - | - |
| 1777835701 | 17.78° C | 39% | 1017 hPa | 0 mm | - | - | - |
| 1777834860 | 17.78° C | 39% | 1017.2 hPa | 0 mm | - | - | - |
| 1777833968 | 17.78° C | 40% | 1017.5 hPa | 0 mm | - | - | - |
| 1777833041 | 17.22° C | 38% | 1017.6 hPa | 0 mm | - | - | - |
| 1777832139 | 17.22° C | 38% | 1017.9 hPa | 0 mm | - | - | - |
| 1777831219 | 16.67° C | 40% | 1018 hPa | 0 mm | - | - | - |
| 1777830319 | 16.67° C | 39% | 1017.9 hPa | 0 mm | - | - | - |
| 1777829461 | 16.11° C | 42% | 1018.1 hPa | 0 mm | - | - | - |
| 1777828558 | 16.11° C | 45% | 1018.3 hPa | 0 mm | - | - | - |
| 1777827640 | 16.11° C | 43% | 1018.5 hPa | 0 mm | - | - | - |
| 1777826738 | 15.56° C | 44% | 1018.6 hPa | 0 mm | - | - | - |
| 1777825817 | 15° C | 45% | 1018.7 hPa | 0 mm | - | - | - |
* Rain latest hour (hover to see other rain measurements)
** Current wind speed in m/s (hover to see current wind gust speed)